Terminal Aerodrome Forecast
Issued by NWS

Home | Current Version | Previous Version | Text Only | Print | Product List | Glossary On
Versions: 1 2 3 4 5 6 7 8 9 10 11 12 13 14 15 16 17 18 19 20
000
FTUS43 KILX 200500
TAFBMI
TAF
KBMI 200533Z 2006/2106 16002KT P6SM SCT070
     FM200800 16003KT 5SM BR BKN050
     FM201000 17002KT 4SM BR OVC015
     FM201600 18006KT P6SM SCT015 OVC035=

USA.gov is the U.S. government's official web portal to all federal, state and local government web resources and services.